createdAt,value
2023-04-13T00:00:12.122Z,52.90
2023-04-13T00:02:40.786Z,52.90
2023-04-13T00:05:11.835Z,53.00
2023-04-13T00:07:40.652Z,53.10
2023-04-13T00:10:11.106Z,53.00
2023-04-13T00:12:40.961Z,52.90
2023-04-13T00:15:09.942Z,52.90
2023-04-13T00:17:38.744Z,53.10
2023-04-13T00:20:13.085Z,52.90
2023-04-13T00:22:42.249Z,52.90
2023-04-13T00:25:14.311Z,52.90
2023-04-13T00:27:43.455Z,53.30
2023-04-13T00:30:13.057Z,53.20
2023-04-13T00:32:42.290Z,53.00
2023-04-13T00:35:12.172Z,53.00
2023-04-13T00:37:43.033Z,53.00
2023-04-13T00:40:15.937Z,53.00
2023-04-13T00:42:45.016Z,52.80
2023-04-13T00:45:13.592Z,52.90
2023-04-13T00:47:43.313Z,52.90
2023-04-13T00:50:11.517Z,52.80
2023-04-13T00:52:40.167Z,52.80
2023-04-13T00:55:09.069Z,52.80
2023-04-13T00:57:40.733Z,52.80
2023-04-13T01:00:10.683Z,52.80
2023-04-13T01:02:42.444Z,52.70
2023-04-13T01:05:15.622Z,52.60
2023-04-13T01:07:59.513Z,52.50
2023-04-13T01:10:34.542Z,52.50
2023-04-13T01:13:11.626Z,52.40
2023-04-13T01:15:52.136Z,52.30
2023-04-13T01:18:22.688Z,52.30
2023-04-13T01:20:53.640Z,52.40
2023-04-13T01:23:32.536Z,52.30
2023-04-13T01:26:06.811Z,52.30
2023-04-13T01:28:38.658Z,52.40
2023-04-13T01:31:11.646Z,52.30
2023-04-13T01:33:41.795Z,52.40
2023-04-13T01:36:12.447Z,52.50
2023-04-13T01:38:40.796Z,52.40
2023-04-13T01:41:10.786Z,52.40
2023-04-13T01:43:45.127Z,52.30
2023-04-13T01:46:15.358Z,52.20
2023-04-13T01:49:03.822Z,52.10
2023-04-13T01:51:38.716Z,52.60
2023-04-13T01:54:13.485Z,52.00
2023-04-13T01:56:45.518Z,51.90
2023-04-13T01:59:16.349Z,51.70
2023-04-13T02:01:44.963Z,51.70
2023-04-13T02:04:13.747Z,51.70
2023-04-13T02:06:44.074Z,51.60
2023-04-13T02:09:12.656Z,51.60
2023-04-13T02:11:41.062Z,51.60
2023-04-13T02:14:09.512Z,51.50
2023-04-13T02:16:39.778Z,51.50
2023-04-13T02:19:08.001Z,51.50
2023-04-13T02:21:37.034Z,51.60
2023-04-13T02:24:05.785Z,51.50
2023-04-13T02:26:33.926Z,51.50
2023-04-13T02:29:02.057Z,51.50
2023-04-13T02:31:31.922Z,51.50
2023-04-13T02:34:01.614Z,51.50
2023-04-13T02:36:31.152Z,51.50
2023-04-13T02:39:04.490Z,51.60
2023-04-13T02:41:34.905Z,51.60
2023-04-13T02:44:03.438Z,51.60
2023-04-13T02:46:42.755Z,51.50
2023-04-13T02:49:17.167Z,51.60
2023-04-13T02:51:55.309Z,51.70
2023-04-13T02:54:34.155Z,51.60
2023-04-13T02:57:02.283Z,51.70
2023-04-13T02:59:32.220Z,51.70
2023-04-13T03:02:01.774Z,51.70
2023-04-13T03:04:33.489Z,51.60
2023-04-13T03:07:08.281Z,51.60
2023-04-13T03:09:40.176Z,51.70
2023-04-13T03:12:09.250Z,51.70
2023-04-13T03:14:38.422Z,51.70
2023-04-13T03:17:11.618Z,51.80
2023-04-13T03:19:42.614Z,51.70
2023-04-13T03:22:13.047Z,51.70
2023-04-13T03:24:46.444Z,51.70
2023-04-13T03:27:21.302Z,51.70
2023-04-13T03:29:50.622Z,51.60
2023-04-13T03:32:22.755Z,51.60
2023-04-13T03:34:59.176Z,51.80
2023-04-13T03:37:29.907Z,51.80
2023-04-13T03:40:01.884Z,51.80
2023-04-13T03:42:33.395Z,51.70
2023-04-13T03:45:02.206Z,51.70
2023-04-13T03:47:30.579Z,51.70
2023-04-13T03:49:59.989Z,51.60
2023-04-13T03:52:28.514Z,51.60
2023-04-13T03:55:01.038Z,51.70
2023-04-13T03:57:34.348Z,51.70
2023-04-13T04:00:07.213Z,51.70
2023-04-13T04:03:07.387Z,51.80
2023-04-13T04:05:48.146Z,51.80
2023-04-13T04:08:16.157Z,51.80
2023-04-13T04:10:45.043Z,51.80
2023-04-13T04:13:13.384Z,51.90
2023-04-13T04:15:46.030Z,51.80
2023-04-13T04:18:14.362Z,51.80
2023-04-13T04:20:42.902Z,51.90
2023-04-13T04:23:15.254Z,51.90
2023-04-13T04:25:59.536Z,51.90
2023-04-13T04:28:38.488Z,51.80
2023-04-13T04:31:10.574Z,51.90
2023-04-13T04:33:40.970Z,51.80
2023-04-13T04:36:14.083Z,51.70
2023-04-13T04:38:58.093Z,51.80
2023-04-13T04:41:27.186Z,51.80
2023-04-13T04:44:02.950Z,51.80
2023-04-13T04:46:38.669Z,51.80
2023-04-13T04:49:11.109Z,51.80
2023-04-13T04:51:40.044Z,51.80
2023-04-13T04:54:09.678Z,51.80
2023-04-13T04:56:38.128Z,51.80
2023-04-13T04:59:06.906Z,51.70
2023-04-13T05:01:43.419Z,51.80
2023-04-13T05:04:14.060Z,51.80
2023-04-13T05:06:44.457Z,51.70
2023-04-13T05:09:20.669Z,51.70
2023-04-13T05:11:52.648Z,51.70
2023-04-13T05:14:22.149Z,51.70
2023-04-13T05:16:51.130Z,51.70
2023-04-13T05:19:30.090Z,51.90
2023-04-13T05:22:03.019Z,52.00
2023-04-13T05:24:40.070Z,51.90
2023-04-13T05:27:13.400Z,52.10
2023-04-13T05:29:42.367Z,52.10
2023-04-13T05:32:10.649Z,52.10
2023-04-13T05:34:39.017Z,52.30
2023-04-13T05:37:11.844Z,52.20
2023-04-13T05:39:41.269Z,52.10
2023-04-13T05:42:09.734Z,52.40
2023-04-13T05:44:42.748Z,52.30
2023-04-13T05:47:11.118Z,52.40
2023-04-13T05:49:40.043Z,52.60
2023-04-13T05:52:10.678Z,52.50
2023-04-13T05:54:50.103Z,52.70
2023-04-13T05:57:22.033Z,52.90
2023-04-13T05:59:52.155Z,52.60
2023-04-13T06:02:26.423Z,52.80
2023-04-13T06:04:55.071Z,52.70
2023-04-13T06:07:24.204Z,52.60
2023-04-13T06:09:53.451Z,52.70
2023-04-13T06:12:24.096Z,52.80
2023-04-13T06:14:53.873Z,53.00
2023-04-13T06:17:21.936Z,53.10
2023-04-13T06:19:50.090Z,53.10
2023-04-13T06:22:18.352Z,53.10
2023-04-13T06:24:46.212Z,53.20
2023-04-13T06:27:17.082Z,53.20
2023-04-13T06:29:47.518Z,53.20
2023-04-13T06:32:15.905Z,53.30
2023-04-13T06:34:45.110Z,53.40
2023-04-13T06:37:14.166Z,53.50
2023-04-13T06:39:47.442Z,53.30
2023-04-13T06:42:17.244Z,53.50
2023-04-13T06:45:22.236Z,53.20
2023-04-13T06:47:50.718Z,53.10
2023-04-13T06:50:19.120Z,53.20
2023-04-13T06:52:48.984Z,53.20
2023-04-13T06:55:17.427Z,53.10
2023-04-13T06:57:46.945Z,53.10
2023-04-13T07:00:28.774Z,53.10
2023-04-13T07:02:59.277Z,52.80
2023-04-13T07:05:27.464Z,52.70
2023-04-13T07:08:00.590Z,52.80
2023-04-13T07:10:29.008Z,52.90
2023-04-13T07:13:01.667Z,53.00
2023-04-13T07:15:31.983Z,52.80
2023-04-13T07:18:00.338Z,52.80
2023-04-13T07:20:28.770Z,52.90
2023-04-13T07:22:57.133Z,52.80
2023-04-13T07:25:25.436Z,52.80
2023-04-13T07:27:56.020Z,52.90
2023-04-13T07:30:25.501Z,53.10
2023-04-13T07:32:53.621Z,53.10
2023-04-13T07:35:22.349Z,53.10
2023-04-13T07:37:52.875Z,53.10
2023-04-13T07:40:23.191Z,53.10
2023-04-13T07:42:55.359Z,53.10
2023-04-13T07:45:25.219Z,52.90
2023-04-13T07:47:54.702Z,52.80
2023-04-13T07:50:24.788Z,52.80
2023-04-13T07:52:53.063Z,52.90
2023-04-13T07:55:23.867Z,52.80
2023-04-13T07:57:53.020Z,52.70
2023-04-13T08:00:23.063Z,52.80
2023-04-13T08:02:57.313Z,52.80
2023-04-13T08:05:26.868Z,52.90
2023-04-13T08:07:55.296Z,53.10
2023-04-13T08:10:23.902Z,53.10
2023-04-13T08:12:53.423Z,53.00
2023-04-13T08:15:22.896Z,52.90
2023-04-13T08:17:51.003Z,52.80
2023-04-13T08:20:22.108Z,52.80
2023-04-13T08:22:52.528Z,52.90
2023-04-13T08:25:22.025Z,53.00
2023-04-13T08:27:50.440Z,53.00
2023-04-13T08:30:18.924Z,53.20
2023-04-13T08:33:05.307Z,53.20
2023-04-13T08:35:36.216Z,53.20
2023-04-13T08:38:04.240Z,53.60
2023-04-13T08:40:37.701Z,53.90
2023-04-13T08:43:07.504Z,55.70
2023-04-13T08:45:36.799Z,57.80
2023-04-13T08:48:05.235Z,58.60
2023-04-13T08:50:39.134Z,58.20
2023-04-13T08:53:09.156Z,57.00
2023-04-13T08:55:45.156Z,56.90
2023-04-13T08:58:14.763Z,55.90
2023-04-13T09:00:44.202Z,54.80
2023-04-13T09:03:15.538Z,55.30
2023-04-13T09:05:55.115Z,54.60
2023-04-13T09:08:24.234Z,53.40
2023-04-13T09:10:55.697Z,52.00
2023-04-13T09:13:23.759Z,50.00
2023-04-13T09:15:52.390Z,49.40
2023-04-13T09:18:49.981Z,50.30
2023-04-13T09:21:19.772Z,49.10
2023-04-13T09:23:58.487Z,48.40
2023-04-13T09:26:27.098Z,48.20
2023-04-13T09:28:57.657Z,49.10
2023-04-13T09:31:26.295Z,47.40
2023-04-13T09:33:54.650Z,48.10
2023-04-13T09:36:24.146Z,46.80
2023-04-13T09:38:53.438Z,46.70
2023-04-13T09:41:35.408Z,45.90
2023-04-13T09:44:05.199Z,44.90
2023-04-13T09:46:33.206Z,45.40
2023-04-13T09:49:03.229Z,44.50
2023-04-13T09:51:39.751Z,44.40
2023-04-13T09:54:09.061Z,43.80
2023-04-13T09:56:48.074Z,44.40
2023-04-13T09:59:19.206Z,43.80
2023-04-13T10:01:47.571Z,44.40
2023-04-13T10:04:16.513Z,44.40
2023-04-13T10:06:47.042Z,45.80
2023-04-13T10:09:15.882Z,47.70
2023-04-13T10:11:47.192Z,49.50
2023-04-13T10:14:18.784Z,50.60
2023-04-13T10:17:04.924Z,51.90
2023-04-13T10:19:38.950Z,52.00
2023-04-13T10:22:09.623Z,52.60
2023-04-13T10:24:39.711Z,49.40
2023-04-13T10:27:16.332Z,49.70
2023-04-13T10:29:44.338Z,47.20
2023-04-13T10:32:22.382Z,46.20
2023-04-13T10:34:51.052Z,42.90
2023-04-13T10:37:21.919Z,42.50
2023-04-13T10:39:51.713Z,40.60
2023-04-13T10:42:19.792Z,39.80
2023-04-13T10:44:49.303Z,39.30
2023-04-13T10:47:20.402Z,38.90
2023-04-13T10:49:49.751Z,39.10
2023-04-13T10:52:18.319Z,38.90
2023-04-13T10:54:47.674Z,40.50
2023-04-13T10:57:16.765Z,40.80
2023-04-13T10:59:56.456Z,41.30
2023-04-13T11:02:27.844Z,41.80
2023-04-13T11:04:56.122Z,41.50
2023-04-13T11:07:25.880Z,42.20
2023-04-13T11:10:02.821Z,42.90
2023-04-13T11:12:31.425Z,42.40
2023-04-13T11:14:59.817Z,43.50
2023-04-13T11:17:27.996Z,42.40
2023-04-13T11:19:57.642Z,42.10
2023-04-13T11:22:28.054Z,42.30
2023-04-13T11:25:09.482Z,42.00
2023-04-13T11:27:38.125Z,41.60
2023-04-13T11:30:09.227Z,42.40
2023-04-13T11:32:41.365Z,42.00
2023-04-13T11:35:10.825Z,42.00
2023-04-13T11:37:40.034Z,41.30
2023-04-13T11:40:14.780Z,41.40
2023-04-13T11:42:45.222Z,38.00
2023-04-13T11:45:15.656Z,39.80
2023-04-13T11:47:44.048Z,38.80
2023-04-13T11:50:14.239Z,37.20
2023-04-13T11:52:45.151Z,36.90
2023-04-13T11:55:23.291Z,36.90
2023-04-13T11:57:53.188Z,36.30
2023-04-13T12:00:25.928Z,36.70
2023-04-13T12:05:27.492Z,37.10
2023-04-13T12:07:57.516Z,36.80
2023-04-13T12:10:38.129Z,36.90
2023-04-13T12:16:02.299Z,37.00
2023-04-13T12:18:37.433Z,37.80
2023-04-13T12:21:06.447Z,38.30
2023-04-13T12:23:34.743Z,39.10
2023-04-13T12:26:32.058Z,39.30
2023-04-13T12:28:57.476Z,39.40
2023-04-13T12:31:25.817Z,39.30
2023-04-13T12:33:53.766Z,39.20
2023-04-13T12:36:21.911Z,39.00
2023-04-13T12:38:49.828Z,39.00
2023-04-13T12:41:19.244Z,39.00
2023-04-13T12:43:47.343Z,39.00
2023-04-13T12:46:15.692Z,39.20
2023-04-13T12:48:43.860Z,39.60
2023-04-13T12:51:12.019Z,39.80
2023-04-13T12:53:40.265Z,39.90
2023-04-13T12:56:08.925Z,40.10
2023-04-13T12:58:38.344Z,40.30
2023-04-13T13:01:06.996Z,40.50
2023-04-13T13:03:37.053Z,40.40
2023-04-13T13:06:05.720Z,40.10
2023-04-13T13:08:36.824Z,40.10
2023-04-13T13:11:08.409Z,40.40
2023-04-13T13:13:37.844Z,40.70
2023-04-13T13:16:06.631Z,40.90
2023-04-13T13:18:49.088Z,41.00
2023-04-13T13:21:18.679Z,41.50
2023-04-13T13:23:46.728Z,41.90
2023-04-13T13:28:48.117Z,42.70
2023-04-13T13:31:16.368Z,43.20
2023-04-13T13:33:44.315Z,43.60
2023-04-13T13:36:13.883Z,43.50
2023-04-13T13:38:42.721Z,43.60
2023-04-13T13:41:10.973Z,43.00
2023-04-13T13:43:39.229Z,42.80
2023-04-13T13:46:08.844Z,42.30
2023-04-13T13:48:39.519Z,41.80
2023-04-13T13:51:28.125Z,41.30
2023-04-13T13:53:58.543Z,40.80
2023-04-13T13:56:26.814Z,40.50
2023-04-13T13:58:54.625Z,40.00
2023-04-13T14:01:24.062Z,39.30
2023-04-13T14:03:52.131Z,38.50
2023-04-13T14:06:20.332Z,38.00
2023-04-13T14:08:48.335Z,38.00
2023-04-13T14:11:16.468Z,38.10
2023-04-13T14:13:44.424Z,37.60
2023-04-13T14:16:12.523Z,37.40
2023-04-13T14:18:41.796Z,37.20
2023-04-13T14:21:10.906Z,37.20
2023-04-13T14:23:40.225Z,37.00
2023-04-13T14:26:08.670Z,37.80
2023-04-13T14:28:36.960Z,37.70
2023-04-13T14:31:06.379Z,37.60
2023-04-13T14:33:34.308Z,37.30
2023-04-13T14:36:03.877Z,36.90
2023-04-13T14:38:31.753Z,36.70
2023-04-13T14:40:59.756Z,36.60
2023-04-13T14:43:27.675Z,36.60
2023-04-13T14:45:56.071Z,36.60
2023-04-13T14:48:23.953Z,36.90
2023-04-13T14:50:52.696Z,37.00
2023-04-13T14:53:22.258Z,37.30
2023-04-13T14:55:50.349Z,37.60
2023-04-13T14:58:18.194Z,37.40
2023-04-13T15:00:46.200Z,37.10
2023-04-13T15:03:15.069Z,37.00
2023-04-13T15:05:46.325Z,37.00
2023-04-13T15:08:16.563Z,36.90
2023-04-13T15:10:45.919Z,36.80
2023-04-13T15:13:14.636Z,36.70
2023-04-13T15:15:42.596Z,36.40
2023-04-13T15:18:10.644Z,36.80
2023-04-13T15:20:38.649Z,36.80
2023-04-13T15:23:07.107Z,36.90
2023-04-13T15:25:37.173Z,36.60
2023-04-13T15:28:06.455Z,36.70
2023-04-13T15:30:35.343Z,36.10
2023-04-13T15:33:04.280Z,35.60
2023-04-13T15:35:35.864Z,35.30
2023-04-13T15:38:05.188Z,34.50
2023-04-13T15:40:34.912Z,34.90
2023-04-13T15:43:03.133Z,35.00
2023-04-13T15:45:32.549Z,35.40
2023-04-13T15:48:00.811Z,35.60
2023-04-13T15:50:28.688Z,35.50
2023-04-13T15:52:57.027Z,35.40
2023-04-13T15:55:25.303Z,35.40
2023-04-13T15:57:53.781Z,35.90
2023-04-13T16:00:22.985Z,35.50
2023-04-13T16:02:52.456Z,35.40
2023-04-13T16:05:20.956Z,35.30
2023-04-13T16:07:49.855Z,34.80
2023-04-13T16:10:18.660Z,34.70
2023-04-13T16:12:50.295Z,34.10
2023-04-13T16:15:19.453Z,34.50
2023-04-13T16:17:48.379Z,34.60
2023-04-13T16:20:21.199Z,34.60
2023-04-13T16:22:52.815Z,34.90
2023-04-13T16:25:21.104Z,35.20
2023-04-13T16:27:48.997Z,35.20
2023-04-13T16:30:20.627Z,34.90
2023-04-13T16:32:50.080Z,34.70
2023-04-13T16:35:19.620Z,34.50
2023-04-13T16:37:48.017Z,34.50
2023-04-13T16:40:16.633Z,34.50
2023-04-13T16:42:44.597Z,34.30
2023-04-13T16:45:14.868Z,34.40
2023-04-13T16:47:43.584Z,34.30
2023-04-13T16:50:12.634Z,34.40
2023-04-13T16:52:42.243Z,34.60
2023-04-13T16:55:15.054Z,34.60
2023-04-13T16:57:43.548Z,34.40
2023-04-13T17:00:12.559Z,34.30
2023-04-13T17:02:41.808Z,34.40
2023-04-13T17:05:11.546Z,34.30
2023-04-13T17:07:42.493Z,34.30
2023-04-13T17:10:12.498Z,34.30
2023-04-13T17:12:41.563Z,34.40
2023-04-13T17:15:10.648Z,34.50
2023-04-13T17:17:42.709Z,34.60
2023-04-13T17:20:12.128Z,34.80
2023-04-13T17:22:41.779Z,34.80
2023-04-13T17:25:10.660Z,34.90
2023-04-13T17:27:38.691Z,35.10
2023-04-13T17:30:08.433Z,35.20
2023-04-13T17:32:36.658Z,35.40
2023-04-13T17:35:05.165Z,35.50
2023-04-13T17:37:33.191Z,35.70
2023-04-13T17:40:02.949Z,35.90
2023-04-13T17:42:31.022Z,36.00
2023-04-13T17:44:58.989Z,36.00
2023-04-13T17:47:27.021Z,36.30
2023-04-13T17:49:55.599Z,36.30
2023-04-13T17:52:23.742Z,36.20
2023-04-13T17:54:51.957Z,36.10
2023-04-13T17:57:21.229Z,36.30
2023-04-13T17:59:49.283Z,36.70
2023-04-13T18:02:17.196Z,37.00
2023-04-13T18:04:45.249Z,37.00
2023-04-13T18:07:13.244Z,37.10
2023-04-13T18:09:41.541Z,37.30
2023-04-13T18:12:09.554Z,37.40
2023-04-13T18:14:38.926Z,37.50
2023-04-13T18:17:07.121Z,37.70
2023-04-13T18:19:35.007Z,37.80
2023-04-13T18:22:03.110Z,37.90
2023-04-13T18:24:31.142Z,38.00
2023-04-13T18:26:59.551Z,38.10
2023-04-13T18:29:27.493Z,38.20
2023-04-13T18:31:56.921Z,38.40
2023-04-13T18:34:24.895Z,38.50
2023-04-13T18:36:55.227Z,38.60
2023-04-13T18:39:23.488Z,38.70
2023-04-13T18:41:51.463Z,38.80
2023-04-13T18:44:19.299Z,38.90
2023-04-13T18:46:47.678Z,38.90
2023-04-13T18:49:16.964Z,39.00
2023-04-13T18:51:44.926Z,39.10
2023-04-13T18:54:13.070Z,39.10
2023-04-13T18:56:41.424Z,39.30
2023-04-13T18:59:09.593Z,39.40
2023-04-13T19:01:37.801Z,39.50
2023-04-13T19:04:06.044Z,39.60
2023-04-13T19:06:36.402Z,39.60
2023-04-13T19:09:04.781Z,39.70
2023-04-13T19:11:46.970Z,39.70
2023-04-13T19:14:15.032Z,40.10
2023-04-13T19:16:45.646Z,39.80
2023-04-13T19:19:15.655Z,40.00
2023-04-13T19:21:45.628Z,40.10
2023-04-13T19:24:14.036Z,40.20
2023-04-13T19:26:42.381Z,40.30
2023-04-13T19:29:12.708Z,40.40
2023-04-13T19:31:43.949Z,40.30
2023-04-13T19:34:13.125Z,40.50
2023-04-13T19:36:42.115Z,40.50
2023-04-13T19:39:11.694Z,40.50
2023-04-13T19:41:40.769Z,40.60
2023-04-13T19:44:09.403Z,41.10
2023-04-13T19:46:37.564Z,40.70
2023-04-13T19:49:05.650Z,40.80
2023-04-13T19:51:33.601Z,40.90
2023-04-13T19:54:03.045Z,41.00
2023-04-13T19:56:34.410Z,41.00
2023-04-13T19:59:03.134Z,41.20
2023-04-13T20:01:33.024Z,41.30
2023-04-13T20:04:02.244Z,41.40
2023-04-13T20:06:30.901Z,41.40
2023-04-13T20:09:09.006Z,41.50
2023-04-13T20:11:38.554Z,41.80
2023-04-13T20:14:06.435Z,41.60
2023-04-13T20:16:35.355Z,41.70
2023-04-13T20:19:03.655Z,41.70
2023-04-13T20:21:32.896Z,41.80
2023-04-13T20:24:01.132Z,42.00
2023-04-13T20:26:30.581Z,42.10
2023-04-13T20:29:00.958Z,42.20
2023-04-13T20:31:29.929Z,42.30
2023-04-13T20:33:58.407Z,42.30
2023-04-13T20:36:26.996Z,42.40
2023-04-13T20:38:59.698Z,42.40
2023-04-13T20:41:29.746Z,42.60
2023-04-13T20:43:59.618Z,42.50
2023-04-13T20:46:34.645Z,42.60
2023-04-13T20:49:05.141Z,42.60
2023-04-13T20:51:34.001Z,42.80
2023-04-13T20:54:05.275Z,42.80
2023-04-13T20:56:33.571Z,43.20
2023-04-13T20:59:03.082Z,43.40
2023-04-13T21:01:31.971Z,43.40
2023-04-13T21:04:00.111Z,43.50
2023-04-13T21:06:29.797Z,43.60
2023-04-13T21:08:59.189Z,43.70
2023-04-13T21:11:27.524Z,43.80
2023-04-13T21:13:55.924Z,43.80
2023-04-13T21:16:26.494Z,43.70
2023-04-13T21:18:54.876Z,43.80
2023-04-13T21:21:24.820Z,43.70
2023-04-13T21:23:53.742Z,43.80
2023-04-13T21:26:21.866Z,43.80
2023-04-13T21:28:49.734Z,43.80
2023-04-13T21:31:17.737Z,43.90
2023-04-13T21:33:47.103Z,43.90
2023-04-13T21:38:46.267Z,44.10
2023-04-13T21:41:17.697Z,44.10
2023-04-13T21:43:46.018Z,44.20
2023-04-13T21:46:15.648Z,44.20
2023-04-13T21:48:43.782Z,44.20
2023-04-13T21:51:13.122Z,44.20
2023-04-13T21:53:41.043Z,44.30
2023-04-13T21:56:09.103Z,44.20
2023-04-13T21:58:41.356Z,44.30
2023-04-13T22:01:10.005Z,44.40
2023-04-13T22:03:38.689Z,44.30
2023-04-13T22:06:09.329Z,44.40
2023-04-13T22:08:39.005Z,44.50
2023-04-13T22:11:07.650Z,44.40
2023-04-13T22:13:36.277Z,44.40
2023-04-13T22:16:04.427Z,44.50
2023-04-13T22:18:32.428Z,44.60
2023-04-13T22:21:00.770Z,44.60
2023-04-13T22:23:29.239Z,44.70
2023-04-13T22:26:01.343Z,44.80
2023-04-13T22:28:30.224Z,44.80
2023-04-13T22:30:58.537Z,44.80
2023-04-13T22:33:31.918Z,44.80
2023-04-13T22:35:59.879Z,44.80
2023-04-13T22:38:27.780Z,44.80
2023-04-13T22:40:55.770Z,44.90
2023-04-13T22:43:25.770Z,45.00
2023-04-13T22:46:00.604Z,45.00
2023-04-13T22:48:29.739Z,45.40
2023-04-13T22:50:58.409Z,45.20
2023-04-13T22:53:26.969Z,45.70
2023-04-13T22:55:55.206Z,45.30
2023-04-13T22:58:23.018Z,45.40
2023-04-13T23:00:52.577Z,45.40
2023-04-13T23:03:21.209Z,45.50
2023-04-13T23:05:49.733Z,45.50
2023-04-13T23:08:17.723Z,45.60
2023-04-13T23:10:45.826Z,45.70
2023-04-13T23:13:13.805Z,45.70
2023-04-13T23:15:41.691Z,45.80
2023-04-13T23:18:11.055Z,45.90
2023-04-13T23:20:38.990Z,46.00
2023-04-13T23:23:07.002Z,46.00
2023-04-13T23:25:35.001Z,46.50
2023-04-13T23:28:02.844Z,46.10
2023-04-13T23:30:30.847Z,46.20
2023-04-13T23:32:59.060Z,46.30
2023-04-13T23:35:28.292Z,46.30
2023-04-13T23:37:56.131Z,46.40
2023-04-13T23:40:23.951Z,46.40
2023-04-13T23:42:52.025Z,46.90
2023-04-13T23:45:20.053Z,46.50
2023-04-13T23:47:48.118Z,46.50
2023-04-13T23:50:17.859Z,46.50
2023-04-13T23:52:47.195Z,46.70
2023-04-13T23:55:15.590Z,46.70
2023-04-13T23:57:43.430Z,46.80
